Time;durP1;ratioP1;P1;durP2;ratioP2;P2;SDS_P1;SDS_P2;PMS_P1;PMS_P2;Temp;Humidity;BMP_temperature;BMP_pressure;BME280_temperature;BME280_humidity;BME280_pressure;Samples;Min_cycle;Max_cycle;Signal;HPM_P1;HPM_P2
2022/01/13 00:02:11;;;;;;;28.30;17.95;;;;;;;;;;4956507;28;20079;-68
2022/01/13 00:04:38;;;;;;;26.17;17.35;;;;;;;;;;4956066;28;20106;-68
2022/01/13 00:07:05;;;;;;;28.90;17.00;;;;;;;;;;4956321;28;20056;-67
2022/01/13 00:09:32;;;;;;;30.33;17.50;;;;;;;;;;4951739;28;20459;-68
2022/01/13 00:11:58;;;;;;;28.73;18.15;;;;;;;;;;4937109;29;20111;-68
2022/01/13 00:14:39;;;;;;;30.30;18.65;;;;;;;;;;4936952;29;20427;-67
2022/01/13 00:17:11;;;;;;;25.02;16.45;;;;;;;;;;4937071;29;20060;-68
2022/01/13 00:24:46;;;;;;;30.08;18.02;;;;;;;;;;4936619;29;20075;-67
2022/01/13 00:27:14;;;;;;;29.42;17.13;;;;;;;;;;4936696;29;20423;-66
2022/01/13 00:29:43;;;;;;;26.33;17.05;;;;;;;;;;4936635;29;20110;-66
2022/01/13 00:32:13;;;;;;;30.17;17.50;;;;;;;;;;4936858;29;20051;-68
2022/01/13 00:34:40;;;;;;;27.52;17.58;;;;;;;;;;4936636;29;20114;-67
2022/01/13 00:37:07;;;;;;;24.65;16.55;;;;;;;;;;4936668;29;20475;-67
2022/01/13 00:39:33;;;;;;;26.13;17.25;;;;;;;;;;4953737;28;20055;-66
2022/01/13 00:42:00;;;;;;;30.08;18.48;;;;;;;;;;4955849;28;20118;-67
2022/01/13 00:44:26;;;;;;;29.20;18.20;;;;;;;;;;4955503;28;20400;-67
2022/01/13 00:46:59;;;;;;;28.88;17.70;;;;;;;;;;4955691;28;20051;-68
2022/01/13 00:49:26;;;;;;;;;;;;;;;;;;4955938;28;20047;-67
2022/01/13 00:51:53;;;;;;;28.45;17.15;;;;;;;;;;4955655;28;19986;-66
2022/01/13 00:54:19;;;;;;;30.70;17.17;;;;;;;;;;4955316;29;20047;-68
2022/01/13 00:56:46;;;;;;;27.45;18.10;;;;;;;;;;4955434;28;20055;-67
2022/01/13 00:59:14;;;;;;;29.25;18.08;;;;;;;;;;4940933;28;20103;-67
2022/01/13 01:01:49;;;;;;;24.23;16.48;;;;;;;;;;4936170;29;20444;-66
2022/01/13 01:04:17;;;;;;;24.35;17.30;;;;;;;;;;4935901;29;20075;-67
2022/01/13 01:06:44;;;;;;;28.13;18.83;;;;;;;;;;4936201;29;20048;-66
2022/01/13 01:09:15;;;;;;;26.45;17.35;;;;;;;;;;4948378;28;20111;-66
2022/01/13 01:11:45;;;;;;;29.90;17.80;;;;;;;;;;4954747;28;20130;-66
2022/01/13 01:14:13;;;;;;;31.20;19.08;;;;;;;;;;4954896;28;20048;-67
2022/01/13 01:16:40;;;;;;;26.95;17.63;;;;;;;;;;4954981;28;20047;-67
2022/01/13 01:19:10;;;;;;;30.65;18.45;;;;;;;;;;4954898;28;20098;-67
2022/01/13 01:26:49;;;;;;;29.27;18.27;;;;;;;;;;4954744;28;20086;-67
2022/01/13 01:29:25;;;;;;;30.33;17.67;;;;;;;;;;4940502;28;20055;-67
2022/01/13 01:31:54;;;;;;;29.98;18.33;;;;;;;;;;4935730;29;20051;-67
2022/01/13 01:37:18;;;;;;;29.65;17.40;;;;;;;;;;4935854;29;20052;-67
2022/01/13 01:39:48;;;;;;;28.77;18.42;;;;;;;;;;4935647;29;20400;-66
2022/01/13 01:42:21;;;;;;;31.15;19.08;;;;;;;;;;4935531;29;20055;-68
2022/01/13 01:44:51;;;;;;;31.13;18.40;;;;;;;;;;4935262;29;20048;-66
2022/01/13 01:47:19;;;;;;;33.85;19.15;;;;;;;;;;4944572;29;20114;-68
2022/01/13 01:49:48;;;;;;;28.50;17.98;;;;;;;;;;4954295;28;20051;-66
2022/01/13 01:52:17;;;;;;;28.13;18.92;;;;;;;;;;4954409;29;20445;-67
2022/01/13 01:54:44;;;;;;;30.15;18.17;;;;;;;;;;4954262;29;20126;-67
2022/01/13 01:57:11;;;;;;;29.77;18.27;;;;;;;;;;4954600;29;20051;-67
2022/01/13 01:59:40;;;;;;;34.03;20.77;;;;;;;;;;4953332;28;20487;-67
2022/01/13 02:02:08;;;;;;;28.52;17.67;;;;;;;;;;4954440;29;20047;-68
2022/01/13 02:04:36;;;;;;;29.27;17.83;;;;;;;;;;4953955;29;20051;-67
2022/01/13 02:07:05;;;;;;;26.88;17.55;;;;;;;;;;4954553;28;20184;-67
2022/01/13 02:09:34;;;;;;;29.42;17.65;;;;;;;;;;4954003;28;20102;-67
2022/01/13 02:12:06;;;;;;;29.90;18.77;;;;;;;;;;4950902;29;20562;-68
2022/01/13 02:14:36;;;;;;;29.40;18.20;;;;;;;;;;4934766;29;20051;-68
2022/01/13 02:17:14;;;;;;;29.45;18.88;;;;;;;;;;4934867;29;20052;-68
2022/01/13 02:19:43;;;;;;;32.03;18.80;;;;;;;;;;4934792;29;20486;-67
2022/01/13 02:22:11;;;;;;;32.85;17.88;;;;;;;;;;4934636;29;20048;-67
2022/01/13 02:24:37;;;;;;;28.73;17.73;;;;;;;;;;4934499;29;20463;-68
2022/01/13 02:27:05;;;;;;;30.00;18.27;;;;;;;;;;4934811;29;20047;-68
2022/01/13 02:29:32;;;;;;;29.67;18.25;;;;;;;;;;4934724;29;20051;-68
2022/01/13 02:31:59;;;;;;;30.02;18.40;;;;;;;;;;4934652;29;20051;-67
2022/01/13 02:34:31;;;;;;;30.90;18.55;;;;;;;;;;4934630;29;20048;-68
2022/01/13 02:36:59;;;;;;;34.78;19.90;;;;;;;;;;4934733;29;20055;-67
2022/01/13 02:39:29;;;;;;;26.58;16.75;;;;;;;;;;4934490;29;20051;-67
2022/01/13 02:41:57;;;;;;;29.00;18.70;;;;;;;;;;4939328;29;20051;-67
2022/01/13 02:44:24;;;;;;;30.60;18.30;;;;;;;;;;4953574;28;20415;-67
2022/01/13 02:49:21;;;;;;;31.52;19.30;;;;;;;;;;4953515;28;20055;-68
2022/01/13 02:51:49;;;;;;;32.17;20.02;;;;;;;;;;4950485;28;20094;-68
2022/01/13 02:54:16;;;;;;;30.80;19.40;;;;;;;;;;4934353;29;20231;-67
2022/01/13 02:56:44;;;;;;;32.08;18.83;;;;;;;;;;4934414;29;20055;-66
2022/01/13 02:59:12;;;;;;;31.48;18.83;;;;;;;;;;4934318;29;20056;-68
2022/01/13 03:01:39;;;;;;;29.38;18.42;;;;;;;;;;4936183;29;20099;-67
2022/01/13 03:04:08;;;;;;;29.48;18.02;;;;;;;;;;4953623;28;20134;-67
2022/01/13 03:06:38;;;;;;;30.50;18.58;;;;;;;;;;4953495;28;20055;-68
2022/01/13 03:09:07;;;;;;;31.88;19.35;;;;;;;;;;4953764;28;20058;-67
2022/01/13 03:11:36;;;;;;;36.42;20.73;;;;;;;;;;4953549;28;20474;-67
2022/01/13 03:14:05;;;;;;;33.63;19.52;;;;;;;;;;4953456;28;20075;-67
2022/01/13 03:16:32;;;;;;;32.42;19.33;;;;;;;;;;4954741;28;20055;-67
2022/01/13 03:18:58;;;;;;;30.95;19.52;;;;;;;;;;4959699;28;20047;-67
2022/01/13 03:21:25;;;;;;;29.42;19.67;;;;;;;;;;4961363;28;20047;-68
2022/01/13 03:23:51;;;;;;;33.25;18.95;;;;;;;;;;4939632;28;20655;-68
2022/01/13 03:26:21;;;;;;;31.15;18.25;;;;;;;;;;4938217;29;20048;-68
2022/01/13 03:28:51;;;;;;;31.95;19.83;;;;;;;;;;4937531;29;20161;-68
2022/01/13 03:31:19;;;;;;;31.38;18.40;;;;;;;;;;4944912;29;20048;-66
2022/01/13 03:33:46;;;;;;;36.63;21.25;;;;;;;;;;4956800;29;20242;-67
2022/01/13 03:36:13;;;;;;;31.60;19.40;;;;;;;;;;4972353;28;20047;-67
2022/01/13 03:38:40;;;;;;;35.55;21.00;;;;;;;;;;4985923;28;20052;-67
2022/01/13 03:41:06;;;;;;;32.08;19.85;;;;;;;;;;4969812;29;20118;-66
2022/01/13 03:43:35;;;;;;;41.05;23.27;;;;;;;;;;4970617;28;20051;-66
2022/01/13 03:46:05;;;;;;;36.22;22.30;;;;;;;;;;4970193;28;20051;-66
2022/01/13 03:48:38;;;;;;;41.70;23.90;;;;;;;;;;4967550;28;20134;-67
2022/01/13 03:51:04;;;;;;;36.80;21.48;;;;;;;;;;4957734;28;20059;-66
2022/01/13 03:53:31;;;;;;;35.58;22.02;;;;;;;;;;4941149;28;20052;-66
2022/01/13 03:56:19;;;;;;;38.35;21.65;;;;;;;;;;4937467;29;20047;-66
2022/01/13 03:59:08;;;;;;;34.65;21.60;;;;;;;;;;4937583;29;20087;-66
2022/01/13 04:02:05;;;;;;;33.72;20.90;;;;;;;;;;4937388;29;20090;-66
2022/01/13 04:04:46;;;;;;;31.30;20.25;;;;;;;;;;4937080;29;20043;-67
2022/01/13 04:07:39;;;;;;;31.73;19.23;;;;;;;;;;4937194;29;20055;-68
2022/01/13 04:10:06;;;;;;;32.35;19.52;;;;;;;;;;4939623;29;20126;-67
2022/01/13 04:12:32;;;;;;;35.65;20.83;;;;;;;;;;4946271;29;20047;-68
2022/01/13 04:14:59;;;;;;;34.60;21.27;;;;;;;;;;4956904;28;20469;-67
2022/01/13 04:17:27;;;;;;;36.03;20.63;;;;;;;;;;4956236;28;20047;-68
2022/01/13 04:19:53;;;;;;;35.10;20.27;;;;;;;;;;4956105;28;20055;-67
2022/01/13 04:22:20;;;;;;;33.78;20.73;;;;;;;;;;4955411;28;20494;-67
2022/01/13 04:24:49;;;;;;;33.47;20.40;;;;;;;;;;4955747;28;20047;-67
2022/01/13 04:27:29;;;;;;;33.75;20.48;;;;;;;;;;4955820;28;20479;-67
2022/01/13 04:32:38;;;;;;;34.42;21.38;;;;;;;;;;4951292;29;20095;-67
2022/01/13 04:35:08;;;;;;;34.47;21.40;;;;;;;;;;4955714;28;20047;-67
2022/01/13 04:37:35;;;;;;;38.42;22.63;;;;;;;;;;4955534;28;20048;-67
2022/01/13 04:40:02;;;;;;;36.65;20.90;;;;;;;;;;4955614;28;20057;-66
2022/01/13 04:42:34;;;;;;;34.15;21.15;;;;;;;;;;4954889;28;20565;-66
2022/01/13 04:45:03;;;;;;;37.30;21.83;;;;;;;;;;4955249;28;20055;-67
2022/01/13 04:47:30;;;;;;;33.78;19.90;;;;;;;;;;4955401;28;20479;-67
2022/01/13 04:49:56;;;;;;;37.75;21.58;;;;;;;;;;4955452;28;20098;-67
2022/01/13 04:52:23;;;;;;;38.08;23.00;;;;;;;;;;4955422;28;20087;-67
2022/01/13 04:54:49;;;;;;;37.15;22.17;;;;;;;;;;4955374;28;20463;-67
2022/01/13 04:57:17;;;;;;;34.55;22.17;;;;;;;;;;4955204;28;20199;-67
2022/01/13 04:59:44;;;;;;;35.42;21.13;;;;;;;;;;4955155;28;20133;-67
2022/01/13 05:02:11;;;;;;;39.15;21.70;;;;;;;;;;4952302;28;20048;-67
2022/01/13 05:04:39;;;;;;;38.88;22.85;;;;;;;;;;4935928;29;20051;-67
2022/01/13 05:07:05;;;;;;;34.35;21.83;;;;;;;;;;4936105;29;20499;-67
2022/01/13 05:09:32;;;;;;;38.92;21.77;;;;;;;;;;4935659;29;20475;-68
2022/01/13 05:12:01;;;;;;;38.85;22.00;;;;;;;;;;4947986;29;20455;-67
2022/01/13 05:14:29;;;;;;;37.53;21.50;;;;;;;;;;4954604;28;20392;-67
2022/01/13 05:19:55;;;;;;;36.85;21.92;;;;;;;;;;4954734;28;20422;-67
2022/01/13 05:24:39;;;;;;;36.97;22.65;;;;;;;;;;4954447;28;20102;-67
2022/01/13 05:27:06;;;;;;;33.25;21.02;;;;;;;;;;4954776;28;20499;-68
2022/01/13 05:29:33;;;;;;;39.60;23.15;;;;;;;;;;4954871;28;20507;-67
2022/01/13 05:31:59;;;;;;;34.20;20.60;;;;;;;;;;4954884;28;20055;-69
2022/01/13 05:34:26;;;;;;;37.95;21.45;;;;;;;;;;4954338;28;20142;-68
2022/01/13 05:37:09;;;;;;;36.55;21.45;;;;;;;;;;4954530;28;20079;-68
2022/01/13 05:39:35;;;;;;;37.08;21.88;;;;;;;;;;4953788;28;20047;-67
2022/01/13 05:42:02;;;;;;;34.88;20.85;;;;;;;;;;4954165;28;20470;-67
2022/01/13 05:44:32;;;;;;;36.47;22.48;;;;;;;;;;4943258;28;20419;-68
2022/01/13 05:46:58;;;;;;;33.95;20.65;;;;;;;;;;4935245;29;20079;-68
2022/01/13 05:49:25;;;;;;;31.17;19.85;;;;;;;;;;4935001;29;20090;-68
2022/01/13 05:51:51;;;;;;;34.30;20.38;;;;;;;;;;4937368;29;20079;-67
2022/01/13 05:54:18;;;;;;;36.05;21.85;;;;;;;;;;4953713;29;20051;-67
2022/01/13 05:56:44;;;;;;;36.05;21.67;;;;;;;;;;4953739;28;20055;-67
2022/01/13 05:59:11;;;;;;;37.53;21.83;;;;;;;;;;4954029;28;20541;-67
2022/01/13 06:01:38;;;;;;;35.60;21.55;;;;;;;;;;4953873;28;20553;-66
2022/01/13 06:04:05;;;;;;;35.65;21.45;;;;;;;;;;4953840;28;20443;-67
2022/01/13 06:06:31;;;;;;;34.80;21.00;;;;;;;;;;4954091;29;20043;-69
2022/01/13 06:08:58;;;;;;;35.63;22.25;;;;;;;;;;4953930;28;20358;-68
2022/01/13 06:11:34;;;;;;;35.85;20.35;;;;;;;;;;4954007;29;20059;-68
2022/01/13 06:14:00;;;;;;;32.92;19.70;;;;;;;;;;4954005;29;20050;-67
2022/01/13 06:16:27;;;;;;;34.40;19.58;;;;;;;;;;4953913;29;20047;-68
2022/01/13 06:18:54;;;;;;;31.08;19.88;;;;;;;;;;4954433;28;20051;-68
2022/01/13 06:21:20;;;;;;;32.88;20.73;;;;;;;;;;4954301;29;20526;-69
2022/01/13 06:23:47;;;;;;;32.25;19.85;;;;;;;;;;4953868;29;20490;-67
2022/01/13 06:26:14;;;;;;;32.15;19.65;;;;;;;;;;4953970;29;20102;-68
2022/01/13 06:28:41;;;;;;;34.83;21.55;;;;;;;;;;4953560;28;20083;-67
2022/01/13 06:31:07;;;;;;;34.95;20.25;;;;;;;;;;4953716;29;20055;-68
2022/01/13 06:33:35;;;;;;;32.13;20.85;;;;;;;;;;4953558;29;20059;-68
2022/01/13 06:36:05;;;;;;;34.17;20.88;;;;;;;;;;4953725;29;20550;-67
2022/01/13 06:38:31;;;;;;;33.55;20.75;;;;;;;;;;4936828;28;20106;-68
2022/01/13 06:40:58;;;;;;;33.97;19.65;;;;;;;;;;4934661;29;20099;-68
2022/01/13 06:43:25;;;;;;;32.25;20.58;;;;;;;;;;4934355;29;20052;-68
2022/01/13 06:45:51;;;;;;;31.67;20.00;;;;;;;;;;4934593;29;20423;-67
2022/01/13 06:48:18;;;;;;;33.03;20.35;;;;;;;;;;4934138;29;20496;-68
2022/01/13 06:50:45;;;;;;;35.67;21.23;;;;;;;;;;4934175;29;20059;-68
2022/01/13 06:53:11;;;;;;;34.90;20.77;;;;;;;;;;4931329;29;20058;-64
2022/01/13 06:55:38;;;;;;;35.60;20.60;;;;;;;;;;4932316;29;20201;-65
2022/01/13 06:58:05;;;;;;;35.50;21.17;;;;;;;;;;4941502;28;20055;-66
2022/01/13 07:00:33;;;;;;;32.83;20.45;;;;;;;;;;4950627;28;20110;-66
2022/01/13 07:03:02;;;;;;;33.75;21.05;;;;;;;;;;4958035;28;20059;-65
2022/01/13 07:05:29;;;;;;;35.90;22.60;;;;;;;;;;4946185;29;20051;-63
2022/01/13 07:07:56;;;;;;;32.28;20.20;;;;;;;;;;4956873;29;20047;-64
2022/01/13 07:10:23;;;;;;;33.22;20.63;;;;;;;;;;4972952;29;20039;-64
2022/01/13 07:12:49;;;;;;;34.10;21.27;;;;;;;;;;4960037;29;20091;-63
2022/01/13 07:15:16;;;;;;;35.15;21.55;;;;;;;;;;4960994;29;20035;-63
2022/01/13 07:17:43;;;;;;;40.17;21.23;;;;;;;;;;4960091;29;20148;-63
2022/01/13 07:20:10;;;;;;;34.30;21.02;;;;;;;;;;4975845;29;20114;-63
2022/01/13 07:22:37;;;;;;;38.15;20.83;;;;;;;;;;4960309;29;20040;-63
2022/01/13 07:25:06;;;;;;;34.78;22.27;;;;;;;;;;4954443;29;20052;-68
2022/01/13 07:27:37;;;;;;;33.92;20.63;;;;;;;;;;4948957;28;20371;-67
2022/01/13 07:30:04;;;;;;;38.28;20.65;;;;;;;;;;4964587;28;20051;-63
2022/01/13 07:32:30;;;;;;;34.25;21.63;;;;;;;;;;4958174;28;20051;-66
2022/01/13 07:34:57;;;;;;;35.17;21.20;;;;;;;;;;4954918;28;20087;-67
2022/01/13 07:37:24;;;;;;;32.97;20.02;;;;;;;;;;4954685;28;20569;-67
2022/01/13 07:39:51;;;;;;;34.78;22.05;;;;;;;;;;4954632;28;20057;-66
2022/01/13 07:42:18;;;;;;;33.08;20.85;;;;;;;;;;4954698;28;20507;-67
2022/01/13 07:44:44;;;;;;;36.25;21.33;;;;;;;;;;4953907;28;20055;-67
2022/01/13 07:47:11;;;;;;;35.55;20.40;;;;;;;;;;4947920;28;20217;-65
2022/01/13 07:49:37;;;;;;;37.85;21.55;;;;;;;;;;4956876;28;20117;-66
2022/01/13 07:52:04;;;;;;;41.10;24.70;;;;;;;;;;4973746;28;20090;-67
2022/01/13 07:54:32;;;;;;;52.08;27.73;;;;;;;;;;4973235;28;20053;-67
2022/01/13 07:57:00;;;;;;;34.33;22.00;;;;;;;;;;4973501;28;20051;-66
2022/01/13 07:59:29;;;;;;;28.95;19.65;;;;;;;;;;4973156;28;20055;-68
2022/01/13 08:01:56;;;;;;;33.65;20.67;;;;;;;;;;4978984;28;20062;-63
2022/01/13 08:04:23;;;;;;;31.08;19.02;;;;;;;;;;4998698;28;20049;-64
2022/01/13 08:06:50;;;;;;;33.95;20.30;;;;;;;;;;4991634;28;20040;-64
2022/01/13 08:09:21;;;;;;;33.53;19.83;;;;;;;;;;4965378;28;20142;-66
2022/01/13 08:11:47;;;;;;;33.25;20.35;;;;;;;;;;4971360;28;20101;-64
2022/01/13 08:14:14;;;;;;;32.38;19.40;;;;;;;;;;4972730;28;20035;-64
2022/01/13 08:16:43;;;;;;;31.55;19.55;;;;;;;;;;4961721;29;20035;-63
2022/01/13 08:21:55;;;;;;;31.63;18.25;;;;;;;;;;4956692;29;20036;-63
2022/01/13 08:24:22;;;;;;;32.90;19.92;;;;;;;;;;4952255;29;20103;-65
2022/01/13 08:26:49;;;;;;;27.67;18.13;;;;;;;;;;4949302;29;20075;-64
2022/01/13 08:29:15;;;;;;;30.33;19.90;;;;;;;;;;4955470;29;20053;-66
2022/01/13 08:31:43;;;;;;;26.83;17.98;;;;;;;;;;4956638;29;20060;-64
2022/01/13 08:34:11;;;;;;;28.67;18.48;;;;;;;;;;4958306;29;20055;-65
2022/01/13 08:36:38;;;;;;;28.42;18.67;;;;;;;;;;4953291;29;20067;-68
2022/01/13 08:39:05;;;;;;;29.75;18.70;;;;;;;;;;4950992;29;20041;-63
2022/01/13 08:41:35;;;;;;;30.02;19.00;;;;;;;;;;4958305;29;20072;-62
2022/01/13 08:44:02;;;;;;;29.67;18.02;;;;;;;;;;4956744;29;20051;-62
2022/01/13 08:46:28;;;;;;;29.30;17.85;;;;;;;;;;4959088;29;20035;-67
2022/01/13 08:48:55;;;;;;;32.80;19.70;;;;;;;;;;4923846;29;20294;-71
2022/01/13 08:51:24;;;;;;;27.65;17.98;;;;;;;;;;4934402;29;20051;-67
2022/01/13 08:53:50;;;;;;;27.08;17.10;;;;;;;;;;4932820;29;20103;-68
2022/01/13 08:56:18;;;;;;;27.15;16.80;;;;;;;;;;4934707;29;20043;-66
2022/01/13 08:58:46;;;;;;;28.08;16.33;;;;;;;;;;4934443;29;20051;-67
2022/01/13 09:01:14;;;;;;;27.63;16.13;;;;;;;;;;4932871;29;20059;-69
2022/01/13 09:03:41;;;;;;;23.15;16.00;;;;;;;;;;4954809;29;20055;-67
2022/01/13 09:06:08;;;;;;;21.60;14.18;;;;;;;;;;4960467;29;20040;-66
2022/01/13 09:08:36;;;;;;;25.20;14.95;;;;;;;;;;4959632;29;20032;-67
2022/01/13 09:11:03;;;;;;;27.98;15.07;;;;;;;;;;4948530;29;20052;-69
2022/01/13 09:13:35;;;;;;;20.80;12.32;;;;;;;;;;4958180;29;20173;-65
2022/01/13 09:16:13;;;;;;;25.45;14.02;;;;;;;;;;4957026;29;20102;-65
2022/01/13 09:19:07;;;;;;;19.48;12.13;;;;;;;;;;4938970;29;20436;-70
2022/01/13 09:21:34;;;;;;;;;;;;;;;;;;4933043;29;20135;-70
2022/01/13 09:24:01;;;;;;;18.48;11.38;;;;;;;;;;4934003;29;19937;-69
2022/01/13 09:26:34;;;;;;;14.70;9.15;;;;;;;;;;4934070;29;20052;-69
2022/01/13 09:29:05;;;;;;;10.77;7.40;;;;;;;;;;4933828;29;20058;-69
2022/01/13 09:31:35;;;;;;;10.88;7.07;;;;;;;;;;4932779;29;20503;-68
2022/01/13 09:34:03;;;;;;;9.38;6.43;;;;;;;;;;4953330;29;20055;-66
2022/01/13 09:36:31;;;;;;;10.27;7.25;;;;;;;;;;4959444;29;20046;-65
2022/01/13 09:38:59;;;;;;;10.90;7.28;;;;;;;;;;4955859;29;20032;-64
2022/01/13 09:41:30;;;;;;;11.40;6.75;;;;;;;;;;4959289;29;20063;-64
2022/01/13 09:44:04;;;;;;;9.63;7.35;;;;;;;;;;4961467;29;20028;-66
2022/01/13 09:46:34;;;;;;;10.43;7.20;;;;;;;;;;4956944;29;20035;-63
2022/01/13 09:49:02;;;;;;;12.10;8.23;;;;;;;;;;4957501;29;20608;-64
2022/01/13 09:51:30;;;;;;;14.27;8.90;;;;;;;;;;4954264;29;20055;-64
2022/01/13 09:53:57;;;;;;;13.63;9.20;;;;;;;;;;4952609;29;20523;-66
2022/01/13 09:56:23;;;;;;;14.07;8.68;;;;;;;;;;4956927;29;20031;-63
2022/01/13 09:58:50;;;;;;;13.57;8.98;;;;;;;;;;4957473;29;20068;-65
2022/01/13 10:01:17;;;;;;;13.45;9.35;;;;;;;;;;4957692;29;20059;-63
2022/01/13 10:03:44;;;;;;;19.23;11.95;;;;;;;;;;4942632;29;20055;-66
2022/01/13 10:06:18;;;;;;;17.05;11.05;;;;;;;;;;4933784;29;20107;-67
2022/01/13 10:08:52;;;;;;;16.15;9.25;;;;;;;;;;4933156;29;20071;-67
2022/01/13 10:11:40;;;;;;;15.25;10.13;;;;;;;;;;4933507;29;20056;-66
2022/01/13 10:17:00;;;;;;;13.75;8.43;;;;;;;;;;4933356;29;20044;-65
2022/01/13 10:19:31;;;;;;;;;;;;;;;;;;4932542;29;20047;-67
2022/01/13 10:22:02;;;;;;;15.95;9.38;;;;;;;;;;4933313;29;20134;-67
2022/01/13 10:24:29;;;;;;;16.20;9.65;;;;;;;;;;4931760;29;20111;-67
2022/01/13 10:27:02;;;;;;;17.40;11.20;;;;;;;;;;4933225;29;20052;-66
2022/01/13 10:29:54;;;;;;;16.50;10.43;;;;;;;;;;4929572;29;20051;-66
2022/01/13 10:32:23;;;;;;;15.23;10.60;;;;;;;;;;4929630;29;20051;-66
2022/01/13 10:34:58;;;;;;;13.55;10.00;;;;;;;;;;4934852;29;20051;-66
2022/01/13 10:37:30;;;;;;;15.43;9.68;;;;;;;;;;4934568;29;20559;-66
2022/01/13 10:40:04;;;;;;;16.08;9.45;;;;;;;;;;4931825;29;20077;-66
2022/01/13 10:45:00;;;;;;;14.25;9.40;;;;;;;;;;4935628;29;20067;-67
2022/01/13 10:47:27;;;;;;;15.27;10.07;;;;;;;;;;4934207;29;20048;-66
2022/01/13 10:49:59;;;;;;;16.63;9.52;;;;;;;;;;4934165;29;20055;-66
2022/01/13 10:52:27;;;;;;;14.75;10.10;;;;;;;;;;4933066;29;20103;-66
2022/01/13 10:54:55;;;;;;;19.50;10.73;;;;;;;;;;4933248;29;20044;-65
2022/01/13 10:57:23;;;;;;;16.73;10.40;;;;;;;;;;4932998;29;20079;-64
2022/01/13 10:59:50;;;;;;;16.73;11.10;;;;;;;;;;4932878;29;20126;-66
2022/01/13 11:02:18;;;;;;;17.02;10.10;;;;;;;;;;4932922;29;20052;-65
2022/01/13 11:04:46;;;;;;;15.45;10.27;;;;;;;;;;4932907;29;20048;-66
2022/01/13 11:07:27;;;;;;;16.42;10.40;;;;;;;;;;4929437;29;20141;-65
2022/01/13 11:09:57;;;;;;;15.13;9.63;;;;;;;;;;4928318;29;20048;-66
2022/01/13 11:12:44;;;;;;;19.20;11.82;;;;;;;;;;4932586;29;20512;-66
2022/01/13 11:15:15;;;;;;;20.50;12.10;;;;;;;;;;4931292;29;20470;-65
2022/01/13 11:17:44;;;;;;;14.80;10.15;;;;;;;;;;4930901;29;20070;-66
2022/01/13 11:20:11;;;;;;;18.35;10.93;;;;;;;;;;4957031;29;20056;-63
2022/01/13 11:22:41;;;;;;;16.35;10.70;;;;;;;;;;4950992;29;20055;-65
2022/01/13 11:25:12;;;;;;;15.80;10.20;;;;;;;;;;4951192;29;20047;-65
2022/01/13 11:27:39;;;;;;;14.50;10.40;;;;;;;;;;4949823;29;20056;-65
2022/01/13 11:30:14;;;;;;;16.70;10.07;;;;;;;;;;4949891;29;20582;-65
2022/01/13 11:32:45;;;;;;;14.23;9.52;;;;;;;;;;4946864;29;20597;-65
2022/01/13 11:35:23;;;;;;;15.38;8.98;;;;;;;;;;4932453;29;20110;-66
2022/01/13 11:37:50;;;;;;;14.07;9.77;;;;;;;;;;4916834;29;20040;-67
2022/01/13 11:40:26;;;;;;;16.90;10.45;;;;;;;;;;4914324;29;20092;-66
2022/01/13 11:42:56;;;;;;;15.93;9.88;;;;;;;;;;4934521;29;20059;-66
2022/01/13 11:45:23;;;;;;;14.57;9.63;;;;;;;;;;4932860;29;20569;-67
2022/01/13 11:48:09;;;;;;;17.30;10.10;;;;;;;;;;4929480;29;20098;-70
2022/01/13 11:50:43;;;;;;;18.20;10.38;;;;;;;;;;4925765;29;20110;-72
2022/01/13 11:53:29;;;;;;;16.05;9.63;;;;;;;;;;4929229;29;20567;-71
2022/01/13 11:56:03;;;;;;;18.05;10.43;;;;;;;;;;4934880;29;20059;-68
2022/01/13 11:58:47;;;;;;;16.73;10.15;;;;;;;;;;4933848;29;20110;-69
2022/01/13 12:01:22;;;;;;;14.75;10.02;;;;;;;;;;4936348;29;20106;-69
2022/01/13 12:03:58;;;;;;;14.40;9.35;;;;;;;;;;4938310;29;20122;-70
2022/01/13 12:06:43;;;;;;;16.42;10.05;;;;;;;;;;4935666;29;20051;-67
2022/01/13 12:09:32;;;;;;;14.80;10.15;;;;;;;;;;4935152;29;20055;-67
2022/01/13 12:11:59;;;;;;;17.40;9.82;;;;;;;;;;4934125;29;20087;-68
2022/01/13 12:14:32;;;;;;;14.65;8.93;;;;;;;;;;4935213;29;20047;-67
2022/01/13 12:17:12;;;;;;;14.32;8.88;;;;;;;;;;4935216;29;20059;-68
2022/01/13 12:19:44;;;;;;;18.00;9.07;;;;;;;;;;4934543;29;20087;-67
2022/01/13 12:22:34;;;;;;;13.05;8.43;;;;;;;;;;4933271;29;20048;-65
2022/01/13 12:25:01;;;;;;;15.07;8.82;;;;;;;;;;4933043;29;20507;-67
2022/01/13 12:27:31;;;;;;;12.00;7.50;;;;;;;;;;4932798;29;20051;-64
2022/01/13 12:30:12;;;;;;;12.27;8.43;;;;;;;;;;4932810;29;20055;-65
2022/01/13 12:32:42;;;;;;;10.98;7.15;;;;;;;;;;4932990;29;20550;-67
2022/01/13 12:35:15;;;;;;;12.73;8.68;;;;;;;;;;4954301;29;20064;-64
2022/01/13 12:37:42;;;;;;;13.13;8.45;;;;;;;;;;4958203;29;20040;-63
2022/01/13 12:40:09;;;;;;;10.38;7.63;;;;;;;;;;4958008;29;20064;-63
2022/01/13 12:42:50;;;;;;;12.18;8.13;;;;;;;;;;4958817;29;20058;-62
2022/01/13 12:45:36;;;;;;;11.55;8.20;;;;;;;;;;4958128;29;20036;-62
2022/01/13 12:48:08;;;;;;;11.55;7.20;;;;;;;;;;4955895;29;20068;-62
2022/01/13 12:50:46;;;;;;;11.98;7.75;;;;;;;;;;4951554;29;20039;-68
2022/01/13 12:53:16;;;;;;;12.07;8.38;;;;;;;;;;4956486;29;20064;-69
2022/01/13 12:55:53;;;;;;;11.55;8.32;;;;;;;;;;4958437;29;20032;-69
2022/01/13 12:58:22;;;;;;;13.35;8.35;;;;;;;;;;4957014;29;20060;-69
2022/01/13 13:01:03;;;;;;;12.25;8.43;;;;;;;;;;4958010;29;20063;-68
2022/01/13 13:03:30;;;;;;;11.63;8.32;;;;;;;;;;4956781;29;20042;-69
2022/01/13 13:05:58;;;;;;;13.25;8.32;;;;;;;;;;4934140;29;20507;-69
2022/01/13 13:08:26;;;;;;;14.48;8.75;;;;;;;;;;4932697;29;20048;-69
2022/01/13 13:10:57;;;;;;;13.93;9.23;;;;;;;;;;4932293;29;20579;-69
2022/01/13 13:13:26;;;;;;;10.90;7.65;;;;;;;;;;4934991;29;20106;-70
2022/01/13 13:15:56;;;;;;;13.40;8.23;;;;;;;;;;4931573;29;20098;-70
2022/01/13 13:18:25;;;;;;;13.43;9.13;;;;;;;;;;4931527;29;20055;-72
2022/01/13 13:20:52;;;;;;;14.15;9.88;;;;;;;;;;4934715;29;20055;-71
2022/01/13 13:23:23;;;;;;;12.48;9.23;;;;;;;;;;4932641;29;20056;-69
2022/01/13 13:25:54;;;;;;;11.68;8.02;;;;;;;;;;4935693;29;20052;-71
2022/01/13 13:28:25;;;;;;;13.93;8.40;;;;;;;;;;4933838;29;20052;-71
2022/01/13 13:30:56;;;;;;;12.80;8.82;;;;;;;;;;4934640;29;20052;-70
2022/01/13 13:33:52;;;;;;;13.77;8.65;;;;;;;;;;4933193;29;20142;-69
2022/01/13 13:36:29;;;;;;;13.63;8.95;;;;;;;;;;4932130;29;20051;-72
2022/01/13 13:39:09;;;;;;;11.30;7.82;;;;;;;;;;4930339;29;20122;-69
2022/01/13 13:41:41;;;;;;;12.45;7.97;;;;;;;;;;4934045;29;20052;-71
2022/01/13 13:44:15;;;;;;;15.48;8.90;;;;;;;;;;4935371;29;20138;-70
2022/01/13 13:47:07;;;;;;;15.25;8.52;;;;;;;;;;4941026;29;20035;-70
2022/01/13 13:49:35;;;;;;;12.82;8.57;;;;;;;;;;4957038;29;20027;-71
2022/01/13 13:52:10;;;;;;;13.38;8.80;;;;;;;;;;4948908;29;20044;-71
2022/01/13 13:54:38;;;;;;;12.30;8.23;;;;;;;;;;4956254;29;20078;-66
2022/01/13 13:57:07;;;;;;;17.27;8.90;;;;;;;;;;4949747;29;20056;-71
2022/01/13 13:59:44;;;;;;;14.15;8.85;;;;;;;;;;4931363;29;20539;-72
2022/01/13 14:02:25;;;;;;;14.25;9.00;;;;;;;;;;4933469;29;20070;-75
2022/01/13 14:05:07;;;;;;;13.65;8.65;;;;;;;;;;4912490;29;20075;-71
2022/01/13 14:07:43;;;;;;;14.00;8.25;;;;;;;;;;4931920;29;20099;-76
2022/01/13 14:10:12;;;;;;;13.35;8.13;;;;;;;;;;4932156;29;20051;-68
2022/01/13 14:12:46;;;;;;;16.08;10.25;;;;;;;;;;4932018;29;20052;-68
2022/01/13 14:15:21;;;;;;;13.85;8.57;;;;;;;;;;4933856;29;20059;-69
2022/01/13 14:17:51;;;;;;;14.77;8.57;;;;;;;;;;4933015;29;20106;-67
2022/01/13 14:20:26;;;;;;;13.77;8.52;;;;;;;;;;4933658;29;20052;-67
2022/01/13 14:22:56;;;;;;;13.90;8.82;;;;;;;;;;4933779;29;20051;-68
2022/01/13 14:25:23;;;;;;;13.85;7.80;;;;;;;;;;4933686;29;20055;-69
2022/01/13 14:27:54;;;;;;;12.82;8.48;;;;;;;;;;4915517;29;20047;-68
2022/01/13 14:30:30;;;;;;;15.02;8.48;;;;;;;;;;4930219;29;20047;-68
2022/01/13 14:33:25;;;;;;;14.27;9.05;;;;;;;;;;4931986;29;20099;-69
2022/01/13 14:36:06;;;;;;;15.27;9.05;;;;;;;;;;4928221;29;20048;-70
2022/01/13 14:38:50;;;;;;;17.58;9.88;;;;;;;;;;4932448;29;20400;-69
2022/01/13 14:41:26;;;;;;;15.02;9.77;;;;;;;;;;4931987;29;20083;-71
2022/01/13 14:44:07;;;;;;;14.70;10.57;;;;;;;;;;4929990;29;20482;-73
2022/01/13 14:46:42;;;;;;;15.23;10.05;;;;;;;;;;4932903;29;20062;-68
2022/01/13 14:49:10;;;;;;;18.55;9.98;;;;;;;;;;4932817;29;20050;-71
2022/01/13 14:51:38;;;;;;;15.05;9.43;;;;;;;;;;4928297;29;20063;-69
2022/01/13 14:54:05;;;;;;;14.85;9.18;;;;;;;;;;4932006;29;20047;-67
2022/01/13 14:56:32;;;;;;;14.25;10.15;;;;;;;;;;4932751;29;20055;-67
2022/01/13 14:58:59;;;;;;;15.07;9.40;;;;;;;;;;4933040;29;20047;-73
2022/01/13 15:01:25;;;;;;;17.40;10.80;;;;;;;;;;4932834;29;20051;-72
2022/01/13 15:03:52;;;;;;;15.60;10.93;;;;;;;;;;4932894;29;20472;-71
2022/01/13 15:06:22;;;;;;;16.60;10.77;;;;;;;;;;4932558;29;20428;-72
2022/01/13 15:08:49;;;;;;;20.00;10.38;;;;;;;;;;4932707;29;20079;-74
2022/01/13 15:11:16;;;;;;;18.27;10.98;;;;;;;;;;4932112;29;20056;-70